Time;durP1;ratioP1;P1;durP2;ratioP2;P2;SDS_P1;SDS_P2;PMS_P1;PMS_P2;Temp;Humidity;BMP_temperature;BMP_pressure;BME280_temperature;BME280_humidity;BME280_pressure;Samples;Min_cycle;Max_cycle;Signal;HPM_P1;HPM_P2
2022/04/03 00:04:24;;;;;;;7.82;7.22;;;1.10;99.90;;;;;;9821087;28;20069;-64
2022/04/03 00:09:26;;;;;;;8.23;7.60;;;1.20;99.90;;;;;;9729166;28;20224;-63
2022/04/03 00:14:28;;;;;;;9.73;8.20;;;1.10;99.90;;;;;;9717276;28;20037;-63
2022/04/03 00:19:31;;;;;;;8.15;7.35;;;1.10;99.90;;;;;;9723993;28;20145;-63
2022/04/03 00:24:33;;;;;;;7.97;7.22;;;1.10;99.80;;;;;;9756523;28;20300;-63
2022/04/03 00:29:34;;;;;;;9.60;8.15;;;1.10;99.90;;;;;;9758203;28;20510;-63
2022/04/03 00:34:36;;;;;;;7.97;7.47;;;1.10;99.90;;;;;;9758644;28;20041;-63
2022/04/03 00:39:38;;;;;;;7.70;6.97;;;1.10;99.90;;;;;;9763701;28;20037;-63
2022/04/03 00:44:40;;;;;;;8.00;7.30;;;1.10;99.90;;;;;;9751648;28;20788;-63
2022/04/03 00:49:42;;;;;;;3.22;1.67;;;1.10;99.90;;;;;;10199119;28;20092;-63
2022/04/03 00:54:44;;;;;;;5.68;1.52;;;1.10;99.90;;;;;;10383844;28;20103;-63
2022/04/03 00:59:46;;;;;;;4.13;1.88;;;1.00;99.90;;;;;;10387637;28;20049;-63
2022/04/03 01:04:47;;;;;;;4.53;1.58;;;0.90;99.90;;;;;;10387987;28;20049;-63
2022/04/03 01:09:52;;;;;;;2.95;1.33;;;0.80;99.90;;;;;;10389592;28;20049;-62
2022/04/03 01:14:53;;;;;;;3.70;1.33;;;0.80;99.90;;;;;;10387343;28;20060;-63
2022/04/03 01:19:55;;;;;;;5.28;1.48;;;0.80;99.90;;;;;;10380143;28;20041;-64
2022/04/03 01:24:58;;;;;;;3.33;1.23;;;0.70;99.90;;;;;;10385247;28;20060;-64
2022/04/03 01:29:59;;;;;;;4.78;1.70;;;0.60;99.90;;;;;;10385776;28;20045;-63
2022/04/03 01:35:02;;;;;;;4.18;1.60;;;0.50;99.90;;;;;;10375716;28;20049;-62
2022/04/03 01:40:04;;;;;;;3.05;1.10;;;0.40;99.90;;;;;;10387877;28;20049;-62
2022/04/03 01:45:07;;;;;;;2.72;1.08;;;0.40;99.90;;;;;;10381724;28;20061;-62
2022/04/03 01:50:09;;;;;;;2.78;1.48;;;0.30;99.90;;;;;;10382331;28;20049;-63
2022/04/03 01:55:10;;;;;;;2.70;0.98;;;0.30;99.90;;;;;;10385550;28;20130;-61
2022/04/03 02:00:12;;;;;;;2.58;1.30;;;0.30;99.90;;;;;;10384224;28;20462;-61
2022/04/03 02:05:14;;;;;;;2.67;0.93;;;0.20;99.20;;;;;;10385359;28;20123;-61
2022/04/03 02:10:16;;;;;;;3.63;1.05;;;0.20;98.80;;;;;;10380492;28;20053;-61
2022/04/03 02:15:18;;;;;;;2.80;0.77;;;0.20;96.70;;;;;;10384481;28;20581;-63
2022/04/03 02:20:19;;;;;;;4.88;1.10;;;0.20;95.10;;;;;;10365335;28;20053;-62
2022/04/03 02:25:21;;;;;;;2.95;0.88;;;0.20;94.20;;;;;;10379398;28;20103;-62
2022/04/03 02:30:23;;;;;;;3.40;1.00;;;0.20;93.70;;;;;;10386528;28;20042;-62
2022/04/03 02:35:25;;;;;;;2.40;0.90;;;0.10;93.00;;;;;;10383576;28;20152;-62
2022/04/03 02:40:27;;;;;;;1.73;0.85;;;0.20;91.60;;;;;;10387263;28;20053;-62
2022/04/03 02:45:29;;;;;;;2.13;0.57;;;0.20;91.50;;;;;;10386710;28;20041;-62
2022/04/03 02:50:31;;;;;;;2.17;0.80;;;0.20;91.90;;;;;;10384588;28;20125;-63
2022/04/03 02:55:32;;;;;;;1.75;0.68;;;0.10;91.30;;;;;;10380803;28;20053;-63
2022/04/03 03:00:35;;;;;;;3.42;0.85;;;0.10;90.20;;;;;;10382510;28;20187;-62
2022/04/03 03:05:38;;;;;;;1.40;0.65;;;0.10;89.70;;;;;;10381723;28;20253;-62
2022/04/03 03:10:40;;;;;;;1.85;0.70;;;0.20;89.60;;;;;;10385514;28;20042;-62
2022/04/03 03:15:42;;;;;;;6.30;0.88;;;0.20;88.70;;;;;;10386591;28;20045;-62
2022/04/03 03:20:43;;;;;;;1.85;0.80;;;0.20;89.20;;;;;;10376007;28;20065;-62
2022/04/03 03:25:45;;;;;;;3.35;1.00;;;0.10;88.80;;;;;;10380924;28;20056;-61
2022/04/03 03:30:47;;;;;;;1.35;0.50;;;0.10;88.20;;;;;;10392428;28;20484;-61
2022/04/03 03:35:48;;;;;;;1.42;0.43;;;0.00;88.00;;;;;;10391552;28;20042;-62
2022/04/03 03:40:50;;;;;;;2.65;0.80;;;0.00;87.00;;;;;;10389368;28;20053;-62
2022/04/03 03:45:52;;;;;;;0.77;0.47;;;-0.10;87.10;;;;;;10391925;28;20053;-62
2022/04/03 03:50:55;;;;;;;3.20;0.47;;;-0.10;85.80;;;;;;10391126;28;20068;-62
2022/04/03 03:55:57;;;;;;;1.15;0.60;;;-0.10;84.20;;;;;;10386496;28;20077;-62
2022/04/03 04:00:59;;;;;;;1.35;0.40;;;-0.10;84.30;;;;;;10388678;28;20049;-62
2022/04/03 04:06:01;;;;;;;1.60;0.40;;;-0.10;84.10;;;;;;10387419;28;20049;-62
2022/04/03 04:11:03;;;;;;;1.08;0.55;;;-0.20;83.40;;;;;;10389710;28;20103;-62
2022/04/03 04:16:06;;;;;;;2.53;0.55;;;-0.20;83.30;;;;;;10388933;28;20115;-62
2022/04/03 04:21:10;;;;;;;0.60;0.40;;;-0.20;84.00;;;;;;10384117;28;20101;-62
2022/04/03 04:26:13;;;;;;;1.55;0.45;;;-0.20;83.50;;;;;;10387505;28;20133;-62
2022/04/03 04:31:15;;;;;;;5.03;0.50;;;-0.30;83.10;;;;;;10388386;28;20053;-62
2022/04/03 04:36:17;;;;;;;1.27;0.55;;;-0.30;82.80;;;;;;10386652;28;20057;-61
2022/04/03 04:41:18;;;;;;;1.38;0.60;;;-0.30;82.70;;;;;;10390137;28;20049;-62
2022/04/03 04:46:23;;;;;;;1.98;0.70;;;-0.40;83.80;;;;;;10385944;28;20057;-61
2022/04/03 04:51:25;;;;;;;1.20;0.50;;;-0.50;83.50;;;;;;10386071;28;20092;-61
2022/04/03 04:56:27;;;;;;;1.77;0.43;;;-0.50;83.60;;;;;;10388981;28;20104;-60
2022/04/03 05:01:29;;;;;;;2.78;0.40;;;-0.50;83.20;;;;;;10389536;28;20046;-61
2022/04/03 05:06:33;;;;;;;9.75;0.88;;;-0.50;84.20;;;;;;10388701;28;20056;-61
2022/04/03 05:11:39;;;;;;;0.50;0.40;;;-0.50;83.60;;;;;;10385347;28;20388;-61
2022/04/03 05:16:41;;;;;;;2.40;0.32;;;-0.50;83.50;;;;;;10386399;28;20049;-60
2022/04/03 05:21:43;;;;;;;1.25;0.40;;;-0.50;82.40;;;;;;10388080;28;20132;-61
2022/04/03 05:26:45;;;;;;;0.63;0.43;;;-0.50;82.70;;;;;;10388247;28;20103;-61
2022/04/03 05:31:46;;;;;;;1.88;0.80;;;-0.50;83.20;;;;;;10385092;28;20044;-61
2022/04/03 05:36:48;;;;;;;1.13;0.55;;;-0.50;83.00;;;;;;10386356;28;20064;-60
2022/04/03 05:41:54;;;;;;;1.35;0.38;;;-0.40;82.50;;;;;;10385185;28;20041;-61
2022/04/03 05:46:55;;;;;;;3.03;0.40;;;-0.40;80.40;;;;;;10381629;28;20049;-61
2022/04/03 05:51:57;;;;;;;1.20;0.50;;;-0.30;79.50;;;;;;10387329;28;20048;-60
2022/04/03 05:56:59;;;;;;;2.25;0.40;;;-0.30;78.60;;;;;;10382303;28;20064;-62
2022/04/03 06:02:01;;;;;;;3.70;0.40;;;-0.30;78.10;;;;;;10387627;28;20111;-62
2022/04/03 06:07:03;;;;;;;0.30;0.30;;;-0.20;78.10;;;;;;10385884;28;20072;-61
2022/04/03 06:12:05;;;;;;;0.45;0.30;;;-0.20;76.70;;;;;;10385631;28;20053;-62
2022/04/03 06:17:07;;;;;;;3.13;0.30;;;-0.10;76.40;;;;;;10387198;28;20045;-61
2022/04/03 06:22:08;;;;;;;1.58;0.40;;;0.00;76.80;;;;;;10385348;28;20050;-60
2022/04/03 06:27:10;;;;;;;1.15;0.50;;;0.10;76.90;;;;;;10381613;28;20129;-62
2022/04/03 06:32:12;;;;;;;0.65;0.50;;;0.20;76.20;;;;;;10381678;28;20045;-61
2022/04/03 06:37:14;;;;;;;2.22;0.30;;;0.30;75.60;;;;;;10383188;28;20123;-61
2022/04/03 06:42:16;;;;;;;0.40;0.20;;;0.50;75.00;;;;;;10383343;28;20080;-62
2022/04/03 06:47:17;;;;;;;0.50;0.25;;;0.70;71.70;;;;;;10385855;28;20107;-62
2022/04/03 06:52:19;;;;;;;0.65;0.30;;;1.00;69.40;;;;;;10380066;28;20557;-61
2022/04/03 06:57:26;;;;;;;0.82;0.38;;;1.20;69.20;;;;;;10381564;28;20107;-61
2022/04/03 07:02:28;;;;;;;1.48;0.30;;;1.30;68.90;;;;;;10391629;28;20554;-61
2022/04/03 07:07:30;;;;;;;0.40;0.30;;;1.40;66.60;;;;;;10393271;28;20045;-61
2022/04/03 07:12:32;;;;;;;4.78;0.38;;;1.60;67.20;;;;;;10391861;28;20053;-64
2022/04/03 07:17:34;;;;;;;1.02;0.30;;;1.70;67.00;;;;;;10390164;28;20054;-64
2022/04/03 07:22:37;;;;;;;0.57;0.22;;;1.80;65.20;;;;;;10385165;28;20044;-63
2022/04/03 07:27:40;;;;;;;4.68;0.38;;;1.90;65.40;;;;;;10391927;28;20045;-63
2022/04/03 07:32:42;;;;;;;1.45;0.40;;;2.00;66.50;;;;;;10389352;28;20053;-63
2022/04/03 07:37:43;;;;;;;5.13;0.55;;;2.10;66.80;;;;;;10387753;28;20041;-64
2022/04/03 07:42:46;;;;;;;0.88;0.40;;;2.30;68.60;;;;;;10387886;28;20060;-63
2022/04/03 07:47:50;;;;;;;0.82;0.40;;;2.40;66.90;;;;;;10388001;28;20107;-63
2022/04/03 07:52:52;;;;;;;0.70;0.40;;;2.50;67.10;;;;;;10385654;28;20570;-63
2022/04/03 07:57:54;;;;;;;1.17;0.40;;;2.60;66.40;;;;;;10386863;28;20087;-64
2022/04/03 08:02:55;;;;;;;0.90;0.40;;;2.80;66.70;;;;;;10390210;28;20041;-64
2022/04/03 08:07:58;;;;;;;0.60;0.22;;;2.90;67.50;;;;;;10390964;28;20241;-65
2022/04/03 08:12:59;;;;;;;3.42;0.40;;;3.20;68.80;;;;;;10387954;28;20053;-65
2022/04/03 08:18:01;;;;;;;0.77;0.30;;;3.40;67.60;;;;;;10383601;28;20107;-65
2022/04/03 08:23:05;;;;;;;0.82;0.40;;;3.60;63.00;;;;;;10387701;28;20045;-64
2022/04/03 08:28:09;;;;;;;1.15;0.20;;;3.70;62.00;;;;;;10382042;28;20049;-64
2022/04/03 08:33:11;;;;;;;3.67;0.45;;;3.80;59.60;;;;;;10388316;28;20041;-63
2022/04/03 08:38:13;;;;;;;0.50;0.20;;;3.90;59.70;;;;;;10382999;28;20460;-63
2022/04/03 08:43:15;;;;;;;1.27;0.32;;;4.00;57.80;;;;;;10385422;28;20508;-63
2022/04/03 08:48:19;;;;;;;0.55;0.30;;;4.00;60.10;;;;;;10383233;28;20050;-64
2022/04/03 08:53:25;;;;;;;1.25;0.60;;;4.10;58.90;;;;;;10382929;28;20045;-63
2022/04/03 08:58:26;;;;;;;2.10;0.40;;;4.30;59.10;;;;;;10382449;28;20057;-64
2022/04/03 09:03:29;;;;;;;0.95;0.35;;;4.40;59.00;;;;;;10384223;28;20061;-64
2022/04/03 09:08:37;;;;;;;1.05;0.40;;;4.50;59.20;;;;;;10387030;28;20139;-63
2022/04/03 09:13:40;;;;;;;0.85;0.40;;;4.60;56.60;;;;;;10389310;28;20045;-63
2022/04/03 09:18:45;;;;;;;2.97;0.40;;;4.60;53.90;;;;;;10388676;28;20132;-65
2022/04/03 09:24:05;;;;;;;0.73;0.30;;;4.80;54.30;;;;;;10384829;28;20117;-64
2022/04/03 09:29:07;;;;;;;0.90;0.30;;;4.90;56.40;;;;;;10384538;28;20049;-64
2022/04/03 09:34:20;;;;;;;0.32;0.20;;;4.90;48.90;;;;;;10384416;28;20053;-64
2022/04/03 09:39:24;;;;;;;2.25;0.47;;;4.80;50.50;;;;;;10398604;28;20055;-64
2022/04/03 09:44:36;;;;;;;1.73;0.32;;;4.70;51.30;;;;;;10386603;28;20053;-65
2022/04/03 09:49:39;;;;;;;3.50;0.38;;;4.70;52.10;;;;;;10381800;28;20106;-64
2022/04/03 09:54:45;;;;;;;0.52;0.35;;;5.20;52.60;;;;;;10387665;28;20041;-63
2022/04/03 09:59:53;;;;;;;0.70;0.40;;;5.10;52.00;;;;;;10380675;28;20155;-62
2022/04/03 10:04:55;;;;;;;1.20;0.40;;;5.00;52.30;;;;;;10383112;28;20041;-62
2022/04/03 10:09:58;;;;;;;0.25;0.20;;;5.10;52.10;;;;;;10382037;28;20042;-63
2022/04/03 10:15:03;;;;;;;0.90;0.40;;;5.20;51.40;;;;;;10383673;28;20049;-62
2022/04/03 10:20:06;;;;;;;0.60;0.40;;;5.30;50.00;;;;;;10377977;28;20667;-63
2022/04/03 10:25:11;;;;;;;0.70;0.30;;;5.20;51.60;;;;;;10376955;28;20054;-63
2022/04/03 10:30:17;;;;;;;0.47;0.30;;;5.40;50.20;;;;;;10381606;28;20064;-62
2022/04/03 10:35:21;;;;;;;1.70;0.30;;;5.70;50.50;;;;;;10384592;28;20076;-62
2022/04/03 10:40:26;;;;;;;1.30;0.70;;;5.80;50.30;;;;;;10389645;28;20103;-63
2022/04/03 10:45:35;;;;;;;1.30;0.30;;;6.30;48.00;;;;;;10389661;28;20065;-63
2022/04/03 10:50:59;;;;;;;0.82;0.40;;;6.50;48.00;;;;;;10383770;28;20060;-63
2022/04/03 10:56:08;;;;;;;3.13;0.40;;;6.40;47.50;;;;;;10378947;28;20037;-64
2022/04/03 11:01:21;;;;;;;0.70;0.40;;;6.70;48.60;;;;;;10389150;28;20064;-63
2022/04/03 11:06:26;;;;;;;0.90;0.50;;;6.90;49.20;;;;;;10389619;28;20048;-63
2022/04/03 11:11:31;;;;;;;0.73;0.40;;;7.30;49.30;;;;;;10387539;28;20069;-64
2022/04/03 11:16:50;;;;;;;1.33;0.40;;;7.40;48.90;;;;;;10388394;28;20111;-64
2022/04/03 11:21:52;;;;;;;0.60;0.50;;;7.30;45.30;;;;;;10385965;28;20103;-64
2022/04/03 11:26:54;;;;;;;0.82;0.40;;;7.60;46.20;;;;;;10391244;28;20079;-64
2022/04/03 11:31:57;;;;;;;1.17;0.45;;;7.80;46.10;;;;;;10382564;28;20111;-64
2022/04/03 11:37:00;;;;;;;1.05;0.40;;;7.90;46.20;;;;;;10385985;28;20119;-64
2022/04/03 11:42:04;;;;;;;2.55;0.40;;;8.10;44.90;;;;;;10386009;28;20053;-64
2022/04/03 11:47:06;;;;;;;1.10;0.40;;;8.50;45.40;;;;;;10389785;28;20087;-65
2022/04/03 11:52:10;;;;;;;1.27;0.73;;;8.70;43.50;;;;;;10389477;28;20046;-67
2022/04/03 11:57:11;;;;;;;1.33;0.63;;;8.90;43.00;;;;;;10389124;28;20049;-66
2022/04/03 12:02:15;;;;;;;1.42;0.47;;;8.70;43.90;;;;;;10386833;28;20053;-64
2022/04/03 12:07:17;;;;;;;0.80;0.60;;;8.00;41.30;;;;;;10389200;28;20057;-65
2022/04/03 12:12:24;;;;;;;2.58;1.17;;;8.20;43.30;;;;;;10388592;28;20511;-65
2022/04/03 12:17:25;;;;;;;0.95;0.43;;;8.20;42.70;;;;;;10388106;28;20111;-65
2022/04/03 12:22:27;;;;;;;1.83;0.30;;;8.50;42.20;;;;;;10373092;28;20100;-65
2022/04/03 12:27:34;;;;;;;0.77;0.40;;;8.90;41.40;;;;;;10357357;28;20045;-64
2022/04/03 12:32:39;;;;;;;1.27;0.40;;;9.10;43.60;;;;;;10383166;28;20103;-66
2022/04/03 12:37:42;;;;;;;3.38;0.52;;;9.30;42.00;;;;;;10387330;28;20053;-65
2022/04/03 12:42:45;;;;;;;1.10;0.50;;;9.40;41.80;;;;;;10384611;28;20111;-65
2022/04/03 12:47:56;;;;;;;1.45;0.40;;;9.90;42.40;;;;;;10384423;28;20077;-64
2022/04/03 12:53:00;;;;;;;0.65;0.40;;;10.20;41.20;;;;;;10380414;28;20053;-63
2022/04/03 13:03:30;;;;;;;1.02;0.40;;;10.80;42.00;;;;;;10382407;28;20107;-62
2022/04/03 13:08:56;;;;;;;0.85;0.40;;;10.40;39.80;;;;;;10390468;28;20050;-64
2022/04/03 13:14:17;;;;;;;0.47;0.30;;;10.80;39.70;;;;;;10380798;28;20132;-61
2022/04/03 13:19:22;;;;;;;2.15;0.50;;;10.80;39.40;;;;;;10387528;28;20050;-62
2022/04/03 13:24:27;;;;;;;2.38;0.32;;;10.90;39.80;;;;;;10386128;28;20057;-62
2022/04/03 13:29:29;;;;;;;3.38;0.45;;;10.60;39.10;;;;;;10383644;28;20061;-62
2022/04/03 13:34:31;;;;;;;0.55;0.40;;;10.10;39.50;;;;;;10385297;28;20045;-62
2022/04/03 13:39:32;;;;;;;0.77;0.50;;;9.90;42.40;;;;;;10386394;28;20050;-63
2022/04/03 13:44:34;;;;;;;1.17;0.40;;;9.70;41.40;;;;;;10384114;28;20056;-62
2022/04/03 13:49:36;;;;;;;1.30;0.40;;;10.10;40.50;;;;;;10386659;28;20095;-62
2022/04/03 13:54:38;;;;;;;0.93;0.30;;;9.50;39.30;;;;;;10381816;28;20045;-62
2022/04/03 13:59:40;;;;;;;0.57;0.30;;;9.10;39.20;;;;;;10385157;28;20416;-63
2022/04/03 14:04:41;;;;;;;2.22;0.50;;;9.30;42.40;;;;;;10381832;28;20049;-62
2022/04/03 14:09:43;;;;;;;0.70;0.40;;;9.50;43.10;;;;;;10382969;28;20561;-61
2022/04/03 14:14:45;;;;;;;0.80;0.40;;;9.30;40.10;;;;;;10417692;22;20057;-92
2022/04/03 14:20:10;;;;;;;1.52;1.25;;;8.40;40.30;;;;;;9918276;28;20130;-93
2022/04/03 14:25:23;;;;;;;1.25;0.40;;;8.90;42.20;;;;;;10078276;28;20651;-94
2022/04/03 14:30:51;;;;;;;0.65;0.30;;;8.90;41.50;;;;;;10036012;28;20223;-94
2022/04/03 14:35:58;;;;;;;2.42;0.45;;;8.80;42.50;;;;;;10030044;28;20057;-93
2022/04/03 14:41:23;;;;;;;5.38;0.40;;;8.70;42.50;;;;;;9928208;28;20315;-93
2022/04/03 14:46:48;;;;;;;1.02;0.30;;;8.60;42.50;;;;;;9985921;28;20120;-89
2022/04/03 14:51:50;;;;;;;0.95;0.35;;;8.80;42.10;;;;;;10231960;28;20271;-88
2022/04/03 14:56:58;;;;;;;0.50;0.40;;;8.70;41.70;;;;;;10144904;28;20051;-93
2022/04/03 15:02:19;;;;;;;1.17;0.57;;;9.70;42.30;;;;;;9994122;28;20083;-93
2022/04/03 15:07:35;;;;;;;0.68;0.40;;;9.90;40.60;;;;;;10033684;28;20048;-94
2022/04/03 15:12:47;;;;;;;0.52;0.30;;;9.70;39.10;;;;;;9967854;28;20087;-93
2022/04/03 15:18:12;;;;;;;1.80;0.30;;;9.50;39.50;;;;;;9939046;28;20071;-92
2022/04/03 15:23:17;;;;;;;0.98;0.50;;;9.00;42.40;;;;;;9941976;28;20040;-93
2022/04/03 15:28:28;;;;;;;0.88;0.30;;;9.00;43.70;;;;;;10100435;28;20036;-93
2022/04/03 15:33:56;;;;;;;0.63;0.35;;;9.00;42.20;;;;;;10084354;28;20047;-93
2022/04/03 15:39:05;;;;;;;0.40;0.30;;;8.90;43.50;;;;;;10009531;28;20033;-92
2022/04/03 15:51:23;;;;;;;3.92;0.40;;;8.70;45.30;;;;;;9988213;29;20116;-93
2022/04/03 15:56:28;;;;;;;0.75;0.30;;;8.80;45.90;;;;;;10051041;28;20051;-93
2022/04/03 16:01:36;;;;;;;2.25;0.50;;;8.80;44.20;;;;;;9939867;28;20056;-93
2022/04/03 16:07:09;;;;;;;1.00;0.43;;;8.80;45.60;;;;;;9854415;29;20040;-93
2022/04/03 16:13:11;;;;;;;1.02;0.35;;;8.40;45.50;;;;;;10051974;28;20076;-94
2022/04/03 16:18:32;;;;;;;1.20;0.40;;;8.70;45.70;;;;;;9963272;28;20106;-92
2022/04/03 16:23:44;;;;;;;1.20;0.40;;;8.60;46.00;;;;;;10135008;28;20391;-93
2022/04/03 16:28:52;;;;;;;1.52;0.30;;;8.60;46.90;;;;;;10030214;29;20130;-93
2022/04/03 16:34:32;;;;;;;0.50;0.20;;;8.60;45.90;;;;;;9975923;29;20093;-93
2022/04/03 16:39:47;;;;;;;0.50;0.20;;;8.50;46.30;;;;;;10003191;28;20143;-93
2022/04/03 16:44:55;;;;;;;0.82;0.30;;;8.60;46.40;;;;;;9985832;28;20055;-93
2022/04/03 16:50:14;;;;;;;1.05;0.30;;;8.50;45.80;;;;;;9981775;28;20051;-94
2022/04/03 16:56:08;;;;;;;;;;;;;;;;;;;;;
2022/04/03 17:01:46;;;;;;;2.55;0.40;;;8.60;45.70;;;;;;10331472;23;19924;-62
2022/04/03 17:06:48;;;;;;;0.80;0.30;;;8.50;46.50;;;;;;10366081;28;20042;-63
2022/04/03 17:11:50;;;;;;;0.90;0.30;;;8.00;46.80;;;;;;10369744;28;20038;-63
2022/04/03 17:16:52;;;;;;;1.75;0.40;;;7.80;47.40;;;;;;10363541;28;20388;-62
2022/04/03 17:21:53;;;;;;;2.03;0.30;;;7.60;48.40;;;;;;10369366;28;20042;-62
2022/04/03 17:26:58;;;;;;;1.80;0.63;;;7.50;48.20;;;;;;10364841;28;20490;-63
2022/04/03 17:32:00;;;;;;;1.00;0.40;;;7.30;49.50;;;;;;10370081;28;20049;-61
2022/04/03 17:37:01;;;;;;;1.58;0.30;;;7.20;50.70;;;;;;10364494;28;20095;-63
2022/04/03 17:42:04;;;;;;;1.17;0.40;;;7.10;51.40;;;;;;10355107;28;20046;-63
2022/04/03 17:47:06;;;;;;;2.28;0.82;;;6.90;52.40;;;;;;10353313;28;20076;-63
2022/04/03 17:52:09;;;;;;;0.60;0.38;;;6.80;52.90;;;;;;10359419;28;20045;-63
2022/04/03 17:57:11;;;;;;;0.60;0.35;;;6.70;53.90;;;;;;10369901;28;20072;-62
2022/04/03 18:02:12;;;;;;;2.80;0.40;;;6.50;54.70;;;;;;10402198;28;20103;-63
2022/04/03 18:07:14;;;;;;;0.95;0.40;;;6.30;54.70;;;;;;10409953;28;20061;-63
2022/04/03 18:12:16;;;;;;;1.08;0.50;;;6.20;54.60;;;;;;10414141;28;20049;-62
2022/04/03 18:17:18;;;;;;;2.92;1.20;;;6.00;55.40;;;;;;10407326;28;20045;-62
2022/04/03 18:22:21;;;;;;;1.13;0.50;;;5.90;55.80;;;;;;10411254;28;20096;-64
2022/04/03 18:27:23;;;;;;;1.23;0.50;;;5.80;56.10;;;;;;10415403;28;20060;-65
2022/04/03 18:32:25;;;;;;;1.98;0.82;;;5.60;57.00;;;;;;10404678;28;20053;-68
2022/04/03 18:37:29;;;;;;;1.02;0.55;;;5.50;57.60;;;;;;10412066;28;20095;-64
2022/04/03 18:42:30;;;;;;;3.17;0.50;;;5.30;58.20;;;;;;10408856;28;20049;-63
2022/04/03 18:47:32;;;;;;;4.15;0.65;;;5.10;59.10;;;;;;10407572;28;20073;-64
2022/04/03 18:52:35;;;;;;;2.97;0.47;;;4.90;60.10;;;;;;10409673;28;20050;-64
2022/04/03 18:57:37;;;;;;;1.48;0.50;;;4.80;60.80;;;;;;10416520;28;20052;-65
2022/04/03 19:02:38;;;;;;;1.15;0.50;;;4.70;61.40;;;;;;10420880;28;20049;-65
2022/04/03 19:07:40;;;;;;;1.90;0.73;;;4.60;61.60;;;;;;10426575;28;20041;-65
2022/04/03 19:12:42;;;;;;;2.72;0.90;;;4.50;62.20;;;;;;10420787;28;20041;-65
2022/04/03 19:17:44;;;;;;;2.35;0.77;;;4.50;62.90;;;;;;10422198;28;20546;-64
2022/04/03 19:22:46;;;;;;;3.80;1.10;;;4.40;63.60;;;;;;10423061;28;20384;-64
2022/04/03 19:27:50;;;;;;;3.40;0.90;;;4.20;64.40;;;;;;10423988;28;20075;-64
2022/04/03 19:32:52;;;;;;;1.95;0.90;;;4.10;65.40;;;;;;10417752;28;20076;-64
2022/04/03 19:37:55;;;;;;;2.63;0.68;;;4.00;65.70;;;;;;10415002;28;20049;-65
2022/04/03 19:42:57;;;;;;;2.03;0.70;;;3.80;66.90;;;;;;10419081;28;20041;-65
2022/04/03 19:47:59;;;;;;;8.15;2.47;;;3.70;67.40;;;;;;10414578;28;20438;-65
2022/04/03 19:53:01;;;;;;;2.72;1.58;;;3.60;68.00;;;;;;10420510;28;20045;-65
2022/04/03 19:58:04;;;;;;;1.40;0.80;;;3.60;68.30;;;;;;10414717;28;20514;-64
2022/04/03 20:03:06;;;;;;;1.10;0.60;;;3.50;69.00;;;;;;10417216;28;20045;-64
2022/04/03 20:08:08;;;;;;;3.00;1.40;;;3.50;69.80;;;;;;10410082;28;20068;-65
2022/04/03 20:13:10;;;;;;;3.90;1.38;;;3.40;69.90;;;;;;10410918;28;20049;-64
2022/04/03 20:18:13;;;;;;;3.40;0.93;;;3.40;70.50;;;;;;10410718;28;20052;-65
2022/04/03 20:23:15;;;;;;;3.30;1.42;;;3.30;71.20;;;;;;10413221;28;20049;-64
2022/04/03 20:28:19;;;;;;;1.98;1.15;;;3.30;72.10;;;;;;10415966;28;20380;-64
2022/04/03 20:33:21;;;;;;;2.03;1.27;;;3.20;72.50;;;;;;10410679;28;20045;-64
2022/04/03 20:38:24;;;;;;;3.08;0.90;;;3.10;74.00;;;;;;10416453;28;20102;-64
2022/04/03 20:43:28;;;;;;;2.65;1.13;;;3.00;73.80;;;;;;10412099;28;20060;-64
2022/04/03 20:48:29;;;;;;;1.85;1.23;;;3.00;73.80;;;;;;10411736;28;20124;-64
2022/04/03 20:53:32;;;;;;;7.93;2.05;;;2.90;73.50;;;;;;10413903;28;20056;-65
2022/04/03 20:58:35;;;;;;;7.90;2.53;;;2.90;76.20;;;;;;10419755;28;20049;-64
2022/04/03 21:03:37;;;;;;;7.65;2.80;;;2.80;80.20;;;;;;10411934;28;20053;-65
2022/04/03 21:08:38;;;;;;;5.05;2.47;;;2.70;81.50;;;;;;10415077;28;20056;-64
2022/04/03 21:13:40;;;;;;;12.68;3.00;;;2.60;82.60;;;;;;10412342;28;20042;-64
2022/04/03 21:18:42;;;;;;;13.52;3.80;;;2.50;84.90;;;;;;10406159;28;20127;-64
2022/04/03 21:23:44;;;;;;;21.45;5.47;;;2.40;87.20;;;;;;10413470;28;20062;-65
2022/04/03 21:28:46;;;;;;;13.20;4.40;;;2.20;88.40;;;;;;10412472;28;20064;-65
2022/04/03 21:33:48;;;;;;;14.60;5.22;;;2.20;86.60;;;;;;10409202;28;20465;-65
2022/04/03 21:38:49;;;;;;;10.45;3.80;;;2.10;88.50;;;;;;10408145;28;20049;-65
2022/04/03 21:43:51;;;;;;;6.60;3.00;;;2.10;89.20;;;;;;10410484;28;20114;-65
2022/04/03 21:48:53;;;;;;;4.88;2.15;;;2.10;88.80;;;;;;10406896;28;20053;-66
2022/04/03 21:53:54;;;;;;;23.60;5.85;;;2.00;89.80;;;;;;10412286;28;20447;-65
2022/04/03 21:58:56;;;;;;;15.45;3.92;;;1.90;93.30;;;;;;10413664;28;20059;-65
2022/04/03 22:03:58;;;;;;;18.60;3.55;;;1.80;94.10;;;;;;10410313;28;20046;-65
2022/04/03 22:09:02;;;;;;;8.80;2.15;;;1.70;94.20;;;;;;10415282;28;20068;-66
2022/04/03 22:14:04;;;;;;;4.63;2.38;;;1.60;94.60;;;;;;10416486;28;20104;-65
2022/04/03 22:19:05;;;;;;;3.40;1.85;;;1.60;93.60;;;;;;10410392;28;20049;-66
2022/04/03 22:24:07;;;;;;;5.30;2.35;;;1.50;95.10;;;;;;10408515;28;20107;-65
2022/04/03 22:29:09;;;;;;;8.77;2.45;;;1.50;95.60;;;;;;10408881;28;20049;-66
2022/04/03 22:34:11;;;;;;;5.70;2.30;;;1.40;95.90;;;;;;10427442;28;20049;-65
2022/04/03 22:39:13;;;;;;;9.27;3.25;;;1.30;96.20;;;;;;10418829;28;20063;-65
2022/04/03 22:44:15;;;;;;;4.97;2.75;;;1.30;97.10;;;;;;10420431;28;20122;-66
2022/04/03 22:49:17;;;;;;;9.48;2.97;;;1.20;97.30;;;;;;10418391;28;20513;-65
2022/04/03 22:54:19;;;;;;;7.93;3.33;;;1.20;97.50;;;;;;10419106;28;20098;-66
2022/04/03 22:59:21;;;;;;;8.00;3.25;;;1.10;97.50;;;;;;10427472;28;20045;-65
2022/04/03 23:04:22;;;;;;;10.30;4.15;;;1.00;98.10;;;;;;10419000;28;20438;-65
2022/04/03 23:09:24;;;;;;;6.90;3.25;;;1.00;99.00;;;;;;10420923;28;20099;-64
2022/04/03 23:14:26;;;;;;;9.15;2.80;;;1.00;99.60;;;;;;10421192;28;20056;-65
2022/04/03 23:19:27;;;;;;;5.13;2.72;;;1.00;99.90;;;;;;10411682;28;20114;-64
2022/04/03 23:24:29;;;;;;;4.30;2.72;;;0.80;98.40;;;;;;10417746;28;20049;-64
2022/04/03 23:29:31;;;;;;;3.25;2.13;;;0.80;98.80;;;;;;10417701;28;20562;-64
2022/04/03 23:34:33;;;;;;;9.57;3.28;;;0.80;99.90;;;;;;10416165;28;20083;-64
2022/04/03 23:39:35;;;;;;;9.02;3.17;;;0.70;99.90;;;;;;10417032;28;20122;-64
2022/04/03 23:44:37;;;;;;;8.98;3.63;;;0.70;99.90;;;;;;10406544;28;20061;-64
2022/04/03 23:49:39;;;;;;;16.27;4.65;;;0.60;99.90;;;;;;10417958;28;20404;-64
2022/04/03 23:54:40;;;;;;;14.02;4.60;;;0.60;99.90;;;;;;10419037;28;20094;-64
2022/04/03 23:59:42;;;;;;;7.55;3.78;;;0.60;99.90;;;;;;10411037;28;20115;-64
